sensor_id;sensor_type;location;lat;lon;timestamp;temperature;humidity
66835;HTU21D;53743;51.100;5.874;2022-12-13T00:00:48;-1.97;92.69
66835;HTU21D;53743;51.100;5.874;2022-12-13T00:01:50;-1.98;92.67
66835;HTU21D;53743;51.100;5.874;2022-12-13T00:02:51;-1.98;92.79
66835;HTU21D;53743;51.100;5.874;2022-12-13T00:03:53;-2.00;92.83
66835;HTU21D;53743;51.100;5.874;2022-12-13T00:04:54;-2.00;92.91
66835;HTU21D;53743;51.100;5.874;2022-12-13T00:05:55;-1.99;92.79
66835;HTU21D;53743;51.100;5.874;2022-12-13T00:06:55;-2.00;92.79
66835;HTU21D;53743;51.100;5.874;2022-12-13T00:07:56;-2.02;92.83
66835;HTU21D;53743;51.100;5.874;2022-12-13T00:08:58;-2.03;92.86
66835;HTU21D;53743;51.100;5.874;2022-12-13T00:09:59;-2.03;92.86
66835;HTU21D;53743;51.100;5.874;2022-12-13T00:11:02;-2.03;92.99
66835;HTU21D;53743;51.100;5.874;2022-12-13T00:12:03;-2.03;93.01
66835;HTU21D;53743;51.100;5.874;2022-12-13T00:13:03;-2.03;92.99
66835;HTU21D;53743;51.100;5.874;2022-12-13T00:14:04;-2.03;93.14
66835;HTU21D;53743;51.100;5.874;2022-12-13T00:15:05;-2.03;93.13
66835;HTU21D;53743;51.100;5.874;2022-12-13T00:16:10;-2.03;92.92
66835;HTU21D;53743;51.100;5.874;2022-12-13T00:17:10;-2.04;93.14
66835;HTU21D;53743;51.100;5.874;2022-12-13T00:18:11;-2.05;93.01
66835;HTU21D;53743;51.100;5.874;2022-12-13T00:19:12;-2.04;93.05
66835;HTU21D;53743;51.100;5.874;2022-12-13T00:20:13;-2.05;93.12
66835;HTU21D;53743;51.100;5.874;2022-12-13T00:21:16;-2.06;93.17
66835;HTU21D;53743;51.100;5.874;2022-12-13T00:22:17;-2.07;93.20
66835;HTU21D;53743;51.100;5.874;2022-12-13T00:23:18;-2.07;93.08
66835;HTU21D;53743;51.100;5.874;2022-12-13T00:24:19;-2.07;93.23
66835;HTU21D;53743;51.100;5.874;2022-12-13T00:25:19;-2.10;93.08
66835;HTU21D;53743;51.100;5.874;2022-12-13T00:26:27;-2.09;93.29
66835;HTU21D;53743;51.100;5.874;2022-12-13T00:27:27;-2.10;93.37
66835;HTU21D;53743;51.100;5.874;2022-12-13T00:28:28;-2.10;93.46
66835;HTU21D;53743;51.100;5.874;2022-12-13T00:29:29;-2.10;93.21
66835;HTU21D;53743;51.100;5.874;2022-12-13T00:30:30;-2.09;93.24
66835;HTU21D;53743;51.100;5.874;2022-12-13T00:31:34;-2.08;93.14
66835;HTU21D;53743;51.100;5.874;2022-12-13T00:32:35;-2.07;93.22
66835;HTU21D;53743;51.100;5.874;2022-12-13T00:33:37;-2.08;93.26
66835;HTU21D;53743;51.100;5.874;2022-12-13T00:34:39;-2.08;93.33
66835;HTU21D;53743;51.100;5.874;2022-12-13T00:35:40;-2.08;93.37
66835;HTU21D;53743;51.100;5.874;2022-12-13T00:36:41;-2.06;93.24
66835;HTU21D;53743;51.100;5.874;2022-12-13T00:37:42;-2.09;93.29
66835;HTU21D;53743;51.100;5.874;2022-12-13T00:38:43;-2.08;93.27
66835;HTU21D;53743;51.100;5.874;2022-12-13T00:39:44;-2.08;93.35
66835;HTU21D;53743;51.100;5.874;2022-12-13T00:40:45;-2.08;93.22
66835;HTU21D;53743;51.100;5.874;2022-12-13T00:41:46;-2.10;93.14
66835;HTU21D;53743;51.100;5.874;2022-12-13T00:42:47;-2.09;93.27
66835;HTU21D;53743;51.100;5.874;2022-12-13T00:43:48;-2.10;93.21
66835;HTU21D;53743;51.100;5.874;2022-12-13T00:44:49;-2.14;93.36
66835;HTU21D;53743;51.100;5.874;2022-12-13T00:45:49;-2.14;93.22
66835;HTU21D;53743;51.100;5.874;2022-12-13T00:46:50;-2.16;93.18
66835;HTU21D;53743;51.100;5.874;2022-12-13T00:47:53;-2.19;93.30
66835;HTU21D;53743;51.100;5.874;2022-12-13T00:48:57;-2.21;93.12
66835;HTU21D;53743;51.100;5.874;2022-12-13T00:49:58;-2.26;93.62
66835;HTU21D;53743;51.100;5.874;2022-12-13T00:50:58;-2.26;93.52
66835;HTU21D;53743;51.100;5.874;2022-12-13T00:51:59;-2.30;93.69
66835;HTU21D;53743;51.100;5.874;2022-12-13T00:53:00;-2.29;93.61
66835;HTU21D;53743;51.100;5.874;2022-12-13T00:54:01;-2.30;93.53
66835;HTU21D;53743;51.100;5.874;2022-12-13T00:55:02;-2.33;93.91
66835;HTU21D;53743;51.100;5.874;2022-12-13T00:56:04;-2.33;94.05
66835;HTU21D;53743;51.100;5.874;2022-12-13T00:57:09;-2.35;94.11
66835;HTU21D;53743;51.100;5.874;2022-12-13T00:58:09;-2.35;94.46
66835;HTU21D;53743;51.100;5.874;2022-12-13T00:59:13;-2.33;94.27
66835;HTU21D;53743;51.100;5.874;2022-12-13T01:00:15;-2.31;93.88
66835;HTU21D;53743;51.100;5.874;2022-12-13T01:01:17;-2.31;93.69
66835;HTU21D;53743;51.100;5.874;2022-12-13T01:02:18;-2.33;93.67
66835;HTU21D;53743;51.100;5.874;2022-12-13T01:03:19;-2.33;93.78
66835;HTU21D;53743;51.100;5.874;2022-12-13T01:04:19;-2.35;93.84
66835;HTU21D;53743;51.100;5.874;2022-12-13T01:05:20;-2.35;93.70
66835;HTU21D;53743;51.100;5.874;2022-12-13T01:06:27;-2.34;93.71
66835;HTU21D;53743;51.100;5.874;2022-12-13T01:07:29;-2.36;93.84
66835;HTU21D;53743;51.100;5.874;2022-12-13T01:08:29;-2.36;93.96
66835;HTU21D;53743;51.100;5.874;2022-12-13T01:09:30;-2.36;94.07
66835;HTU21D;53743;51.100;5.874;2022-12-13T01:10:32;-2.34;94.06
66835;HTU21D;53743;51.100;5.874;2022-12-13T01:11:33;-2.32;93.92
66835;HTU21D;53743;51.100;5.874;2022-12-13T01:12:33;-2.35;93.85
66835;HTU21D;53743;51.100;5.874;2022-12-13T01:13:35;-2.38;93.92
66835;HTU21D;53743;51.100;5.874;2022-12-13T01:14:38;-2.36;93.90
66835;HTU21D;53743;51.100;5.874;2022-12-13T01:15:44;-2.36;93.87
66835;HTU21D;53743;51.100;5.874;2022-12-13T01:16:45;-2.39;94.07
66835;HTU21D;53743;51.100;5.874;2022-12-13T01:17:45;-2.46;94.54
66835;HTU21D;53743;51.100;5.874;2022-12-13T01:18:46;-2.46;94.64
66835;HTU21D;53743;51.100;5.874;2022-12-13T01:19:47;-2.47;94.88
66835;HTU21D;53743;51.100;5.874;2022-12-13T01:21:17;-2.46;94.57
66835;HTU21D;53743;51.100;5.874;2022-12-13T01:22:19;-2.47;94.62
66835;HTU21D;53743;51.100;5.874;2022-12-13T01:23:19;-2.49;94.72
66835;HTU21D;53743;51.100;5.874;2022-12-13T01:24:20;-2.52;94.83
66835;HTU21D;53743;51.100;5.874;2022-12-13T01:25:22;-2.50;94.61
66835;HTU21D;53743;51.100;5.874;2022-12-13T01:26:22;-2.51;94.52
66835;HTU21D;53743;51.100;5.874;2022-12-13T01:27:23;-2.51;94.48
66835;HTU21D;53743;51.100;5.874;2022-12-13T01:28:24;-2.50;93.98
66835;HTU21D;53743;51.100;5.874;2022-12-13T01:29:26;-2.51;94.15
66835;HTU21D;53743;51.100;5.874;2022-12-13T01:30:26;-2.53;94.19
66835;HTU21D;53743;51.100;5.874;2022-12-13T01:31:27;-2.54;94.43
66835;HTU21D;53743;51.100;5.874;2022-12-13T01:32:28;-2.53;94.36
66835;HTU21D;53743;51.100;5.874;2022-12-13T01:33:30;-2.52;94.36
66835;HTU21D;53743;51.100;5.874;2022-12-13T01:34:31;-2.50;94.20
66835;HTU21D;53743;51.100;5.874;2022-12-13T01:35:34;-2.50;94.04
66835;HTU21D;53743;51.100;5.874;2022-12-13T01:36:36;-2.50;93.88
66835;HTU21D;53743;51.100;5.874;2022-12-13T01:37:37;-2.49;94.03
66835;HTU21D;53743;51.100;5.874;2022-12-13T01:38:37;-2.51;94.06
66835;HTU21D;53743;51.100;5.874;2022-12-13T01:39:38;-2.51;94.07
66835;HTU21D;53743;51.100;5.874;2022-12-13T01:40:44;-2.53;94.15
66835;HTU21D;53743;51.100;5.874;2022-12-13T01:41:49;-2.56;94.20
66835;HTU21D;53743;51.100;5.874;2022-12-13T01:42:50;-2.56;94.31
66835;HTU21D;53743;51.100;5.874;2022-12-13T01:43:54;-2.57;94.26
66835;HTU21D;53743;51.100;5.874;2022-12-13T01:45:55;-2.54;94.43
66835;HTU21D;53743;51.100;5.874;2022-12-13T01:46:56;-2.57;94.14
66835;HTU21D;53743;51.100;5.874;2022-12-13T01:48:01;-2.57;94.29
66835;HTU21D;53743;51.100;5.874;2022-12-13T01:49:09;-2.58;94.46
66835;HTU21D;53743;51.100;5.874;2022-12-13T01:50:21;-2.58;94.40
66835;HTU21D;53743;51.100;5.874;2022-12-13T01:51:31;-2.60;94.33
66835;HTU21D;53743;51.100;5.874;2022-12-13T01:52:33;-2.64;94.49
66835;HTU21D;53743;51.100;5.874;2022-12-13T01:53:37;-2.62;94.46
66835;HTU21D;53743;51.100;5.874;2022-12-13T01:54:45;-2.62;94.36
66835;HTU21D;53743;51.100;5.874;2022-12-13T01:55:55;-2.64;94.43
66835;HTU21D;53743;51.100;5.874;2022-12-13T01:56:58;-2.63;94.41
66835;HTU21D;53743;51.100;5.874;2022-12-13T01:58:01;-2.65;94.31
66835;HTU21D;53743;51.100;5.874;2022-12-13T01:59:06;-2.65;94.43
66835;HTU21D;53743;51.100;5.874;2022-12-13T02:00:08;-2.64;94.39
66835;HTU21D;53743;51.100;5.874;2022-12-13T02:01:09;-2.66;94.30
66835;HTU21D;53743;51.100;5.874;2022-12-13T02:02:13;-2.65;94.24
66835;HTU21D;53743;51.100;5.874;2022-12-13T02:03:16;-2.64;94.15
66835;HTU21D;53743;51.100;5.874;2022-12-13T02:04:35;-2.67;94.33
66835;HTU21D;53743;51.100;5.874;2022-12-13T02:06:58;-2.66;94.15
66835;HTU21D;53743;51.100;5.874;2022-12-13T02:08:00;-2.67;94.23
66835;HTU21D;53743;51.100;5.874;2022-12-13T02:09:04;-2.66;94.03
66835;HTU21D;53743;51.100;5.874;2022-12-13T02:10:07;-2.67;94.06
66835;HTU21D;53743;51.100;5.874;2022-12-13T02:12:18;-2.67;94.04
66835;HTU21D;53743;51.100;5.874;2022-12-13T02:13:19;-2.66;94.11
66835;HTU21D;53743;51.100;5.874;2022-12-13T02:14:19;-2.66;94.20
66835;HTU21D;53743;51.100;5.874;2022-12-13T02:15:21;-2.67;94.05
66835;HTU21D;53743;51.100;5.874;2022-12-13T02:16:55;-2.71;94.05
66835;HTU21D;53743;51.100;5.874;2022-12-13T02:27:06;-2.71;94.27
66835;HTU21D;53743;51.100;5.874;2022-12-13T02:32:55;-2.71;93.96
66835;HTU21D;53743;51.100;5.874;2022-12-13T02:34:19;-2.71;94.14
66835;HTU21D;53743;51.100;5.874;2022-12-13T02:35:31;-2.73;94.30
66835;HTU21D;53743;51.100;5.874;2022-12-13T02:36:48;-2.72;94.24
66835;HTU21D;53743;51.100;5.874;2022-12-13T02:38:02;-2.74;94.10
66835;HTU21D;53743;51.100;5.874;2022-12-13T02:39:14;-2.74;94.26
66835;HTU21D;53743;51.100;5.874;2022-12-13T02:40:29;-2.76;94.18
66835;HTU21D;53743;51.100;5.874;2022-12-13T02:41:49;-2.76;94.35
66835;HTU21D;53743;51.100;5.874;2022-12-13T02:43:21;-2.76;94.24
66835;HTU21D;53743;51.100;5.874;2022-12-13T02:44:27;-2.76;94.28
66835;HTU21D;53743;51.100;5.874;2022-12-13T02:45:52;-2.77;94.25
66835;HTU21D;53743;51.100;5.874;2022-12-13T02:47:04;-2.81;94.22
66835;HTU21D;53743;51.100;5.874;2022-12-13T02:48:09;-2.79;94.20
66835;HTU21D;53743;51.100;5.874;2022-12-13T02:49:12;-2.79;94.43
66835;HTU21D;53743;51.100;5.874;2022-12-13T02:50:13;-2.77;94.25
66835;HTU21D;53743;51.100;5.874;2022-12-13T02:51:16;-2.79;94.19
66835;HTU21D;53743;51.100;5.874;2022-12-13T02:52:23;-2.78;94.40
66835;HTU21D;53743;51.100;5.874;2022-12-13T02:53:25;-2.77;94.18
66835;HTU21D;53743;51.100;5.874;2022-12-13T02:54:26;-2.78;94.14
66835;HTU21D;53743;51.100;5.874;2022-12-13T02:55:27;-2.78;94.10
66835;HTU21D;53743;51.100;5.874;2022-12-13T02:56:30;-2.79;94.04
66835;HTU21D;53743;51.100;5.874;2022-12-13T02:57:37;-2.78;93.91
66835;HTU21D;53743;51.100;5.874;2022-12-13T02:58:46;-2.80;93.85
66835;HTU21D;53743;51.100;5.874;2022-12-13T02:59:49;-2.83;94.20
66835;HTU21D;53743;51.100;5.874;2022-12-13T03:03:50;-2.87;94.73
66835;HTU21D;53743;51.100;5.874;2022-12-13T03:05:26;-2.88;94.59
66835;HTU21D;53743;51.100;5.874;2022-12-13T03:06:56;-2.89;94.85
66835;HTU21D;53743;51.100;5.874;2022-12-13T03:09:39;-2.89;94.78
66835;HTU21D;53743;51.100;5.874;2022-12-13T03:10:58;-2.88;94.30
66835;HTU21D;53743;51.100;5.874;2022-12-13T03:12:29;-2.84;94.24
66835;HTU21D;53743;51.100;5.874;2022-12-13T03:13:57;-2.86;93.99
66835;HTU21D;53743;51.100;5.874;2022-12-13T03:16:32;-2.88;94.07
66835;HTU21D;53743;51.100;5.874;2022-12-13T03:18:26;-2.88;94.31
66835;HTU21D;53743;51.100;5.874;2022-12-13T03:19:14;-2.86;94.36
66835;HTU21D;53743;51.100;5.874;2022-12-13T03:20:24;-2.87;94.18
66835;HTU21D;53743;51.100;5.874;2022-12-13T03:21:25;-2.91;94.27
66835;HTU21D;53743;51.100;5.874;2022-12-13T03:22:26;-2.92;94.52
66835;HTU21D;53743;51.100;5.874;2022-12-13T03:23:28;-2.92;94.75
66835;HTU21D;53743;51.100;5.874;2022-12-13T03:24:28;-2.90;94.55
66835;HTU21D;53743;51.100;5.874;2022-12-13T03:25:30;-2.91;94.58
66835;HTU21D;53743;51.100;5.874;2022-12-13T03:26:32;-2.91;94.64
66835;HTU21D;53743;51.100;5.874;2022-12-13T03:27:32;-2.89;94.59
66835;HTU21D;53743;51.100;5.874;2022-12-13T03:28:33;-2.88;94.32
66835;HTU21D;53743;51.100;5.874;2022-12-13T03:29:34;-2.89;94.29
66835;HTU21D;53743;51.100;5.874;2022-12-13T03:30:34;-2.91;94.27
66835;HTU21D;53743;51.100;5.874;2022-12-13T03:31:35;-2.91;94.26
66835;HTU21D;53743;51.100;5.874;2022-12-13T03:32:35;-2.91;94.28
66835;HTU21D;53743;51.100;5.874;2022-12-13T03:33:36;-2.93;94.12
66835;HTU21D;53743;51.100;5.874;2022-12-13T03:34:38;-2.95;94.50
66835;HTU21D;53743;51.100;5.874;2022-12-13T03:35:40;-2.94;94.36
66835;HTU21D;53743;51.100;5.874;2022-12-13T03:36:41;-2.95;94.52
66835;HTU21D;53743;51.100;5.874;2022-12-13T03:37:42;-2.96;94.66
66835;HTU21D;53743;51.100;5.874;2022-12-13T03:38:44;-3.00;94.42
66835;HTU21D;53743;51.100;5.874;2022-12-13T03:39:45;-2.98;94.63
66835;HTU21D;53743;51.100;5.874;2022-12-13T03:40:46;-2.98;94.42
66835;HTU21D;53743;51.100;5.874;2022-12-13T03:41:49;-3.00;94.33
66835;HTU21D;53743;51.100;5.874;2022-12-13T03:42:49;-3.01;94.51
66835;HTU21D;53743;51.100;5.874;2022-12-13T03:43:50;-3.04;94.55
66835;HTU21D;53743;51.100;5.874;2022-12-13T03:44:51;-3.03;94.69
66835;HTU21D;53743;51.100;5.874;2022-12-13T03:45:52;-3.02;94.66
66835;HTU21D;53743;51.100;5.874;2022-12-13T03:46:53;-3.00;94.57
66835;HTU21D;53743;51.100;5.874;2022-12-13T03:47:54;-3.01;94.43
66835;HTU21D;53743;51.100;5.874;2022-12-13T03:48:56;-3.02;94.35
66835;HTU21D;53743;51.100;5.874;2022-12-13T03:49:56;-3.04;94.28
66835;HTU21D;53743;51.100;5.874;2022-12-13T03:50:57;-3.04;94.26
66835;HTU21D;53743;51.100;5.874;2022-12-13T03:51:57;-3.03;94.34
66835;HTU21D;53743;51.100;5.874;2022-12-13T03:52:59;-3.05;94.19
66835;HTU21D;53743;51.100;5.874;2022-12-13T03:54:00;-3.05;94.51
66835;HTU21D;53743;51.100;5.874;2022-12-13T03:55:01;-3.09;94.24
66835;HTU21D;53743;51.100;5.874;2022-12-13T03:56:04;-3.09;94.55
66835;HTU21D;53743;51.100;5.874;2022-12-13T03:57:04;-3.09;94.49
66835;HTU21D;53743;51.100;5.874;2022-12-13T03:58:05;-3.09;94.65
66835;HTU21D;53743;51.100;5.874;2022-12-13T03:59:06;-3.07;94.54
66835;HTU21D;53743;51.100;5.874;2022-12-13T04:00:07;-3.07;94.60
66835;HTU21D;53743;51.100;5.874;2022-12-13T04:01:15;-3.09;94.43
66835;HTU21D;53743;51.100;5.874;2022-12-13T04:02:15;-3.10;94.48
66835;HTU21D;53743;51.100;5.874;2022-12-13T04:03:16;-3.10;94.65
66835;HTU21D;53743;51.100;5.874;2022-12-13T04:04:17;-3.12;94.52
66835;HTU21D;53743;51.100;5.874;2022-12-13T04:05:17;-3.13;94.80
66835;HTU21D;53743;51.100;5.874;2022-12-13T04:06:18;-3.15;94.88
66835;HTU21D;53743;51.100;5.874;2022-12-13T04:07:18;-3.15;94.94
66835;HTU21D;53743;51.100;5.874;2022-12-13T04:08:19;-3.15;94.76
66835;HTU21D;53743;51.100;5.874;2022-12-13T04:09:19;-3.18;94.75
66835;HTU21D;53743;51.100;5.874;2022-12-13T04:10:20;-3.18;94.94
66835;HTU21D;53743;51.100;5.874;2022-12-13T04:11:21;-3.18;95.04
66835;HTU21D;53743;51.100;5.874;2022-12-13T04:12:40;-3.16;95.08
66835;HTU21D;53743;51.100;5.874;2022-12-13T04:13:59;-3.17;94.56
66835;HTU21D;53743;51.100;5.874;2022-12-13T04:15:00;-3.17;94.72
66835;HTU21D;53743;51.100;5.874;2022-12-13T04:16:01;-3.17;94.63
66835;HTU21D;53743;51.100;5.874;2022-12-13T04:17:02;-3.20;94.55
66835;HTU21D;53743;51.100;5.874;2022-12-13T04:18:03;-3.20;94.81
66835;HTU21D;53743;51.100;5.874;2022-12-13T04:19:03;-3.21;94.66
66835;HTU21D;53743;51.100;5.874;2022-12-13T04:20:04;-3.22;94.72
66835;HTU21D;53743;51.100;5.874;2022-12-13T04:21:05;-3.22;94.61
66835;HTU21D;53743;51.100;5.874;2022-12-13T04:22:06;-3.22;94.73
66835;HTU21D;53743;51.100;5.874;2022-12-13T04:23:06;-3.24;94.57
66835;HTU21D;53743;51.100;5.874;2022-12-13T04:24:07;-3.23;94.72
66835;HTU21D;53743;51.100;5.874;2022-12-13T04:25:08;-3.24;94.62
66835;HTU21D;53743;51.100;5.874;2022-12-13T04:26:08;-3.24;94.91
66835;HTU21D;53743;51.100;5.874;2022-12-13T04:27:09;-3.26;94.77
66835;HTU21D;53743;51.100;5.874;2022-12-13T04:28:10;-3.28;94.88
66835;HTU21D;53743;51.100;5.874;2022-12-13T04:29:11;-3.30;95.15
66835;HTU21D;53743;51.100;5.874;2022-12-13T04:30:12;-3.30;95.08
66835;HTU21D;53743;51.100;5.874;2022-12-13T04:31:12;-3.31;95.28
66835;HTU21D;53743;51.100;5.874;2022-12-13T04:32:13;-3.34;95.30
66835;HTU21D;53743;51.100;5.874;2022-12-13T04:33:13;-3.33;95.36
66835;HTU21D;53743;51.100;5.874;2022-12-13T04:34:14;-3.37;95.76
66835;HTU21D;53743;51.100;5.874;2022-12-13T04:35:15;-3.34;95.47
66835;HTU21D;53743;51.100;5.874;2022-12-13T04:36:15;-3.34;95.59
66835;HTU21D;53743;51.100;5.874;2022-12-13T04:37:19;-3.36;95.62
66835;HTU21D;53743;51.100;5.874;2022-12-13T04:38:19;-3.39;95.60
66835;HTU21D;53743;51.100;5.874;2022-12-13T04:39:20;-3.39;95.90
66835;HTU21D;53743;51.100;5.874;2022-12-13T04:40:22;-3.39;95.75
66835;HTU21D;53743;51.100;5.874;2022-12-13T04:41:22;-3.37;95.67
66835;HTU21D;53743;51.100;5.874;2022-12-13T04:42:23;-3.39;95.50
66835;HTU21D;53743;51.100;5.874;2022-12-13T04:43:24;-3.42;95.69
66835;HTU21D;53743;51.100;5.874;2022-12-13T04:44:24;-3.50;96.75
66835;HTU21D;53743;51.100;5.874;2022-12-13T04:45:25;-3.49;96.77
66835;HTU21D;53743;51.100;5.874;2022-12-13T04:46:25;-3.51;96.81
66835;HTU21D;53743;51.100;5.874;2022-12-13T04:47:26;-3.50;96.91
66835;HTU21D;53743;51.100;5.874;2022-12-13T04:48:26;-3.49;96.54
66835;HTU21D;53743;51.100;5.874;2022-12-13T04:49:28;-3.54;97.08
66835;HTU21D;53743;51.100;5.874;2022-12-13T04:50:29;-3.51;96.75
66835;HTU21D;53743;51.100;5.874;2022-12-13T04:51:30;-3.51;96.20
66835;HTU21D;53743;51.100;5.874;2022-12-13T04:52:30;-3.53;96.17
66835;HTU21D;53743;51.100;5.874;2022-12-13T04:53:31;-3.50;96.02
66835;HTU21D;53743;51.100;5.874;2022-12-13T04:54:32;-3.47;95.83
66835;HTU21D;53743;51.100;5.874;2022-12-13T04:55:33;-3.47;95.98
66835;HTU21D;53743;51.100;5.874;2022-12-13T04:56:33;-3.46;95.95
66835;HTU21D;53743;51.100;5.874;2022-12-13T04:57:34;-3.49;95.99
66835;HTU21D;53743;51.100;5.874;2022-12-13T04:58:35;-3.51;96.36
66835;HTU21D;53743;51.100;5.874;2022-12-13T04:59:36;-3.50;96.41
66835;HTU21D;53743;51.100;5.874;2022-12-13T05:00:39;-3.52;96.52
66835;HTU21D;53743;51.100;5.874;2022-12-13T05:01:39;-3.50;96.59
66835;HTU21D;53743;51.100;5.874;2022-12-13T05:02:40;-3.48;96.10
66835;HTU21D;53743;51.100;5.874;2022-12-13T05:03:41;-3.49;96.13
66835;HTU21D;53743;51.100;5.874;2022-12-13T05:04:44;-3.47;95.97
66835;HTU21D;53743;51.100;5.874;2022-12-13T05:05:45;-3.47;95.94
66835;HTU21D;53743;51.100;5.874;2022-12-13T05:06:45;-3.48;95.96
66835;HTU21D;53743;51.100;5.874;2022-12-13T05:07:46;-3.47;96.17
66835;HTU21D;53743;51.100;5.874;2022-12-13T05:08:46;-3.45;96.07
66835;HTU21D;53743;51.100;5.874;2022-12-13T05:09:47;-3.45;96.07
66835;HTU21D;53743;51.100;5.874;2022-12-13T05:10:48;-3.47;96.04
66835;HTU21D;53743;51.100;5.874;2022-12-13T05:11:48;-3.47;96.07
66835;HTU21D;53743;51.100;5.874;2022-12-13T05:12:49;-3.47;96.26
66835;HTU21D;53743;51.100;5.874;2022-12-13T05:13:49;-3.48;96.01
66835;HTU21D;53743;51.100;5.874;2022-12-13T05:14:51;-3.48;96.15
66835;HTU21D;53743;51.100;5.874;2022-12-13T05:16:03;-3.51;96.36
66835;HTU21D;53743;51.100;5.874;2022-12-13T05:17:04;-3.48;96.20
66835;HTU21D;53743;51.100;5.874;2022-12-13T05:18:05;-3.48;96.39
66835;HTU21D;53743;51.100;5.874;2022-12-13T05:19:06;-3.48;96.05
66835;HTU21D;53743;51.100;5.874;2022-12-13T05:20:07;-3.49;96.23
66835;HTU21D;53743;51.100;5.874;2022-12-13T05:21:10;-3.51;96.21
66835;HTU21D;53743;51.100;5.874;2022-12-13T05:22:11;-3.55;96.50
66835;HTU21D;53743;51.100;5.874;2022-12-13T05:23:14;-3.54;96.62
66835;HTU21D;53743;51.100;5.874;2022-12-13T05:24:15;-3.52;96.50
66835;HTU21D;53743;51.100;5.874;2022-12-13T05:25:16;-3.52;96.21
66835;HTU21D;53743;51.100;5.874;2022-12-13T05:26:16;-3.53;96.42
66835;HTU21D;53743;51.100;5.874;2022-12-13T05:27:17;-3.56;96.58
66835;HTU21D;53743;51.100;5.874;2022-12-13T05:28:18;-3.54;96.58
66835;HTU21D;53743;51.100;5.874;2022-12-13T05:29:19;-3.56;96.67
66835;HTU21D;53743;51.100;5.874;2022-12-13T05:30:19;-3.56;96.86
66835;HTU21D;53743;51.100;5.874;2022-12-13T05:31:20;-3.53;96.49
66835;HTU21D;53743;51.100;5.874;2022-12-13T05:32:20;-3.54;96.62
66835;HTU21D;53743;51.100;5.874;2022-12-13T05:33:22;-3.58;96.70
66835;HTU21D;53743;51.100;5.874;2022-12-13T05:34:23;-3.58;96.84
66835;HTU21D;53743;51.100;5.874;2022-12-13T05:35:23;-3.58;96.63
66835;HTU21D;53743;51.100;5.874;2022-12-13T05:36:24;-3.56;96.49
66835;HTU21D;53743;51.100;5.874;2022-12-13T05:37:25;-3.57;96.57
66835;HTU21D;53743;51.100;5.874;2022-12-13T05:38:27;-3.60;96.96
66835;HTU21D;53743;51.100;5.874;2022-12-13T05:39:28;-3.57;96.60
66835;HTU21D;53743;51.100;5.874;2022-12-13T05:40:30;-3.62;97.04
66835;HTU21D;53743;51.100;5.874;2022-12-13T05:41:34;-3.62;97.29
66835;HTU21D;53743;51.100;5.874;2022-12-13T05:42:37;-3.58;96.97
66835;HTU21D;53743;51.100;5.874;2022-12-13T05:43:40;-3.54;96.68
66835;HTU21D;53743;51.100;5.874;2022-12-13T05:44:40;-3.53;96.33
66835;HTU21D;53743;51.100;5.874;2022-12-13T05:45:41;-3.57;96.43
66835;HTU21D;53743;51.100;5.874;2022-12-13T05:46:41;-3.56;96.66
66835;HTU21D;53743;51.100;5.874;2022-12-13T05:47:42;-3.55;96.65
66835;HTU21D;53743;51.100;5.874;2022-12-13T05:48:43;-3.57;96.33
66835;HTU21D;53743;51.100;5.874;2022-12-13T05:49:44;-3.58;96.40
66835;HTU21D;53743;51.100;5.874;2022-12-13T05:50:44;-3.61;96.51
66835;HTU21D;53743;51.100;5.874;2022-12-13T05:51:45;-3.60;96.55
66835;HTU21D;53743;51.100;5.874;2022-12-13T05:52:45;-3.58;96.74
66835;HTU21D;53743;51.100;5.874;2022-12-13T05:53:47;-3.60;96.55
66835;HTU21D;53743;51.100;5.874;2022-12-13T05:54:47;-3.58;96.74
66835;HTU21D;53743;51.100;5.874;2022-12-13T05:55:48;-3.56;96.55
66835;HTU21D;53743;51.100;5.874;2022-12-13T05:56:49;-3.57;96.54
66835;HTU21D;53743;51.100;5.874;2022-12-13T05:57:49;-3.58;96.46
66835;HTU21D;53743;51.100;5.874;2022-12-13T05:58:50;-3.58;96.52
66835;HTU21D;53743;51.100;5.874;2022-12-13T05:59:51;-3.61;96.66
66835;HTU21D;53743;51.100;5.874;2022-12-13T06:00:51;-3.62;96.57
66835;HTU21D;53743;51.100;5.874;2022-12-13T06:01:52;-3.60;96.69
66835;HTU21D;53743;51.100;5.874;2022-12-13T06:02:53;-3.60;96.77
66835;HTU21D;53743;51.100;5.874;2022-12-13T06:03:53;-3.58;96.55
66835;HTU21D;53743;51.100;5.874;2022-12-13T06:04:54;-3.58;96.68
66835;HTU21D;53743;51.100;5.874;2022-12-13T06:05:54;-3.62;96.58
66835;HTU21D;53743;51.100;5.874;2022-12-13T06:06:55;-3.62;96.71
66835;HTU21D;53743;51.100;5.874;2022-12-13T06:07:56;-3.61;96.90
66835;HTU21D;53743;51.100;5.874;2022-12-13T06:08:58;-3.61;96.66
66835;HTU21D;53743;51.100;5.874;2022-12-13T06:09:59;-3.61;96.91
66835;HTU21D;53743;51.100;5.874;2022-12-13T06:11:01;-3.62;96.81
66835;HTU21D;53743;51.100;5.874;2022-12-13T06:12:02;-3.61;96.98
66835;HTU21D;53743;51.100;5.874;2022-12-13T06:13:03;-3.58;96.97
66835;HTU21D;53743;51.100;5.874;2022-12-13T06:14:04;-3.60;96.68
66835;HTU21D;53743;51.100;5.874;2022-12-13T06:15:05;-3.57;96.89
66835;HTU21D;53743;51.100;5.874;2022-12-13T06:16:06;-3.56;96.77
66835;HTU21D;53743;51.100;5.874;2022-12-13T06:17:06;-3.56;96.71
66835;HTU21D;53743;51.100;5.874;2022-12-13T06:18:07;-3.55;96.80
66835;HTU21D;53743;51.100;5.874;2022-12-13T06:19:07;-3.55;96.83
66835;HTU21D;53743;51.100;5.874;2022-12-13T06:20:08;-3.56;96.95
66835;HTU21D;53743;51.100;5.874;2022-12-13T06:21:09;-3.55;96.82
66835;HTU21D;53743;51.100;5.874;2022-12-13T06:22:10;-3.60;96.82
66835;HTU21D;53743;51.100;5.874;2022-12-13T06:23:10;-3.60;97.10
66835;HTU21D;53743;51.100;5.874;2022-12-13T06:24:12;-3.60;97.10
66835;HTU21D;53743;51.100;5.874;2022-12-13T06:25:13;-3.61;96.92
66835;HTU21D;53743;51.100;5.874;2022-12-13T06:26:14;-3.61;97.16
66835;HTU21D;53743;51.100;5.874;2022-12-13T06:27:14;-3.60;97.03
66835;HTU21D;53743;51.100;5.874;2022-12-13T06:28:15;-3.63;97.09
66835;HTU21D;53743;51.100;5.874;2022-12-13T06:29:18;-3.62;97.16
66835;HTU21D;53743;51.100;5.874;2022-12-13T06:30:19;-3.60;97.19
66835;HTU21D;53743;51.100;5.874;2022-12-13T06:31:19;-3.58;97.08
66835;HTU21D;53743;51.100;5.874;2022-12-13T06:32:20;-3.61;97.07
66835;HTU21D;53743;51.100;5.874;2022-12-13T06:33:22;-3.61;97.10
66835;HTU21D;53743;51.100;5.874;2022-12-13T06:34:22;-3.57;96.81
66835;HTU21D;53743;51.100;5.874;2022-12-13T06:35:23;-3.58;96.87
66835;HTU21D;53743;51.100;5.874;2022-12-13T06:36:24;-3.55;96.60
66835;HTU21D;53743;51.100;5.874;2022-12-13T06:37:24;-3.56;96.81
66835;HTU21D;53743;51.100;5.874;2022-12-13T06:38:25;-3.55;96.91
66835;HTU21D;53743;51.100;5.874;2022-12-13T06:39:25;-3.53;96.75
66835;HTU21D;53743;51.100;5.874;2022-12-13T06:40:26;-3.60;96.68
66835;HTU21D;53743;51.100;5.874;2022-12-13T06:41:26;-3.61;97.27
66835;HTU21D;53743;51.100;5.874;2022-12-13T06:42:27;-3.61;97.03
66835;HTU21D;53743;51.100;5.874;2022-12-13T06:43:28;-3.56;97.15
66835;HTU21D;53743;51.100;5.874;2022-12-13T06:44:28;-3.58;97.42
66835;HTU21D;53743;51.100;5.874;2022-12-13T06:45:29;-3.58;97.63
66835;HTU21D;53743;51.100;5.874;2022-12-13T06:46:30;-3.60;97.78
66835;HTU21D;53743;51.100;5.874;2022-12-13T06:47:31;-3.52;97.31
66835;HTU21D;53743;51.100;5.874;2022-12-13T06:48:32;-3.56;97.56
66835;HTU21D;53743;51.100;5.874;2022-12-13T06:49:33;-3.50;97.30
66835;HTU21D;53743;51.100;5.874;2022-12-13T06:50:33;-3.56;97.48
66835;HTU21D;53743;51.100;5.874;2022-12-13T06:51:34;-3.65;98.62
66835;HTU21D;53743;51.100;5.874;2022-12-13T06:52:35;-3.70;99.64
66835;HTU21D;53743;51.100;5.874;2022-12-13T06:53:38;-3.55;98.75